createdAt,value
2022-10-06T00:01:59.554Z,7.13
2022-10-06T00:04:28.824Z,7.16
2022-10-06T00:09:37.404Z,7.03
2022-10-06T00:12:07.177Z,7.14
2022-10-06T00:14:36.396Z,7.17
2022-10-06T00:17:13.290Z,7.22
2022-10-06T00:19:42.354Z,7.26
2022-10-06T00:22:11.406Z,7.32
2022-10-06T00:24:45.670Z,7.35
2022-10-06T00:27:15.232Z,7.33
2022-10-06T00:29:44.613Z,7.29
2022-10-06T00:32:15.745Z,7.28
2022-10-06T00:34:45.041Z,7.29
2022-10-06T00:37:14.290Z,7.35
2022-10-06T00:39:43.655Z,7.38
2022-10-06T00:42:24.032Z,7.41
2022-10-06T00:45:03.091Z,7.37
2022-10-06T00:47:36.238Z,7.29
2022-10-06T00:50:06.499Z,7.31
2022-10-06T00:52:35.717Z,7.25
2022-10-06T00:55:08.877Z,7.27
2022-10-06T00:57:39.339Z,7.28
2022-10-06T01:00:14.753Z,7.26
2022-10-06T01:02:50.564Z,7.23
2022-10-06T01:05:29.566Z,7.32
2022-10-06T01:08:03.942Z,7.27
2022-10-06T01:10:32.994Z,7.30
2022-10-06T01:13:10.071Z,7.30
2022-10-06T01:15:44.320Z,7.24
2022-10-06T01:18:18.251Z,7.33
2022-10-06T01:20:59.569Z,7.37
2022-10-06T01:23:33.557Z,7.42
2022-10-06T01:26:06.845Z,7.44
2022-10-06T01:28:36.579Z,7.48
2022-10-06T01:31:09.947Z,7.47
2022-10-06T01:33:39.546Z,7.51
2022-10-06T01:36:09.379Z,7.45
2022-10-06T01:38:40.397Z,7.54
2022-10-06T01:41:09.748Z,7.56
2022-10-06T01:43:38.827Z,7.52
2022-10-06T01:46:08.819Z,7.57
2022-10-06T01:48:38.485Z,7.54
2022-10-06T01:51:15.642Z,7.63
2022-10-06T01:53:46.776Z,7.68
2022-10-06T01:56:15.950Z,7.70
2022-10-06T01:58:45.560Z,7.78
2022-10-06T02:01:15.040Z,7.82
2022-10-06T02:03:44.262Z,7.79
2022-10-06T02:06:13.694Z,7.81
2022-10-06T02:08:47.143Z,7.78
2022-10-06T02:11:16.807Z,7.81
2022-10-06T02:13:49.046Z,7.82
2022-10-06T02:16:18.397Z,7.81
2022-10-06T02:18:47.755Z,7.82
2022-10-06T02:21:19.105Z,7.79
2022-10-06T02:23:50.367Z,7.68
2022-10-06T02:26:20.036Z,7.79
2022-10-06T02:28:51.491Z,7.76
2022-10-06T02:31:25.256Z,7.69
2022-10-06T02:33:54.528Z,7.72
2022-10-06T02:36:24.812Z,7.73
2022-10-06T02:39:02.497Z,7.76
2022-10-06T02:41:37.469Z,7.79
2022-10-06T02:44:11.727Z,7.80
2022-10-06T02:46:44.330Z,7.83
2022-10-06T02:49:13.742Z,7.87
2022-10-06T02:51:49.094Z,7.91
2022-10-06T02:54:26.390Z,7.93
2022-10-06T02:56:55.575Z,7.94
2022-10-06T02:59:24.635Z,7.98
2022-10-06T03:02:04.717Z,7.98
2022-10-06T03:04:33.909Z,7.98
2022-10-06T03:07:04.188Z,7.91
2022-10-06T03:09:44.816Z,7.89
2022-10-06T03:12:16.494Z,7.86
2022-10-06T03:14:47.138Z,7.83
2022-10-06T03:17:16.306Z,7.82
2022-10-06T03:19:51.448Z,7.81
2022-10-06T03:22:21.455Z,7.78
2022-10-06T03:25:03.587Z,7.83
2022-10-06T03:27:32.900Z,7.87
2022-10-06T03:30:06.158Z,7.85
2022-10-06T03:32:37.759Z,8.03
2022-10-06T03:35:07.848Z,7.97
2022-10-06T03:37:37.179Z,7.98
2022-10-06T03:40:15.013Z,7.99
2022-10-06T03:42:44.550Z,8.02
2022-10-06T03:45:14.042Z,8.04
2022-10-06T03:47:43.457Z,8.09
2022-10-06T03:50:12.875Z,8.07
2022-10-06T03:52:42.091Z,8.10
2022-10-06T03:55:22.650Z,8.02
2022-10-06T03:57:57.082Z,8.14
2022-10-06T04:00:26.176Z,8.11
2022-10-06T04:02:55.278Z,8.09
2022-10-06T04:05:34.984Z,8.04
2022-10-06T04:08:04.212Z,8.04
2022-10-06T04:10:35.265Z,8.01
2022-10-06T04:13:07.284Z,8.00
2022-10-06T04:15:36.217Z,8.16
2022-10-06T04:18:06.171Z,8.13
2022-10-06T04:20:35.845Z,8.15
2022-10-06T04:23:05.571Z,8.17
2022-10-06T04:25:36.924Z,8.17
2022-10-06T04:28:06.196Z,8.22
2022-10-06T04:30:35.564Z,8.20
2022-10-06T04:33:04.737Z,8.21
2022-10-06T04:35:33.819Z,8.24
2022-10-06T04:38:04.236Z,8.27
2022-10-06T04:40:33.868Z,8.30
2022-10-06T04:43:05.323Z,8.35
2022-10-06T04:45:35.284Z,8.49
2022-10-06T04:48:04.585Z,8.56
2022-10-06T04:50:33.824Z,8.62
2022-10-06T04:53:08.821Z,8.63
2022-10-06T04:55:38.105Z,8.71
2022-10-06T04:58:14.577Z,8.73
2022-10-06T05:00:44.497Z,8.72
2022-10-06T05:03:14.088Z,8.74
2022-10-06T05:05:43.487Z,8.78
2022-10-06T05:08:12.678Z,8.81
2022-10-06T05:10:41.943Z,8.84
2022-10-06T05:13:15.188Z,8.88
2022-10-06T05:15:44.371Z,8.92
2022-10-06T05:18:18.872Z,8.94
2022-10-06T05:20:57.448Z,9.00
2022-10-06T05:23:27.967Z,9.01
2022-10-06T05:26:07.796Z,9.11
2022-10-06T05:28:43.976Z,9.19
2022-10-06T05:31:17.787Z,9.27
2022-10-06T05:33:47.605Z,9.50
2022-10-06T05:36:24.542Z,9.70
2022-10-06T05:38:55.782Z,9.80
2022-10-06T05:41:28.312Z,9.83
2022-10-06T05:44:05.999Z,9.77
2022-10-06T05:46:47.023Z,9.74
2022-10-06T05:49:16.369Z,9.69
2022-10-06T05:51:57.352Z,9.70
2022-10-06T05:54:33.237Z,9.69
2022-10-06T05:57:02.736Z,9.76
2022-10-06T05:59:36.744Z,9.89
2022-10-06T06:02:11.665Z,10.00
2022-10-06T06:04:44.228Z,10.09
2022-10-06T06:07:25.199Z,10.20
2022-10-06T06:09:54.610Z,10.11
2022-10-06T06:12:23.664Z,10.05
2022-10-06T06:15:25.872Z,10.00
2022-10-06T06:18:01.173Z,9.98
2022-10-06T06:23:10.856Z,9.87
2022-10-06T06:25:40.043Z,9.79
2022-10-06T06:28:14.418Z,9.80
2022-10-06T06:30:45.583Z,9.77
2022-10-06T06:33:14.919Z,9.94
2022-10-06T06:35:44.183Z,9.96
2022-10-06T06:38:13.458Z,10.02
2022-10-06T06:40:42.625Z,10.14
2022-10-06T06:43:19.191Z,10.08
2022-10-06T06:46:23.733Z,10.01
2022-10-06T06:49:03.817Z,9.99
2022-10-06T06:51:36.456Z,10.08
2022-10-06T06:56:54.816Z,10.29
2022-10-06T06:59:32.582Z,10.36
2022-10-06T07:02:09.374Z,10.41
2022-10-06T07:04:41.343Z,10.52
2022-10-06T07:07:13.321Z,10.57
2022-10-06T07:09:43.827Z,10.54
2022-10-06T07:12:15.188Z,10.64
2022-10-06T07:15:10.789Z,10.88
2022-10-06T07:18:16.460Z,11.13
2022-10-06T07:20:58.640Z,11.17
2022-10-06T07:23:46.275Z,11.22
2022-10-06T07:26:19.858Z,11.14
2022-10-06T07:28:49.643Z,11.23
2022-10-06T07:31:20.604Z,11.41
2022-10-06T07:33:53.117Z,11.49
2022-10-06T07:36:23.028Z,11.39
2022-10-06T07:38:57.364Z,11.31
2022-10-06T07:41:26.638Z,11.29
2022-10-06T07:43:59.395Z,11.36
2022-10-06T07:46:32.886Z,11.54
2022-10-06T07:49:19.016Z,11.67
2022-10-06T07:51:49.743Z,11.65
2022-10-06T07:57:15.915Z,11.92
2022-10-06T08:00:00.557Z,12.06
2022-10-06T08:02:41.726Z,12.14
2022-10-06T08:05:13.497Z,12.07
2022-10-06T08:07:42.810Z,12.35
2022-10-06T08:10:12.710Z,12.12
2022-10-06T08:12:41.970Z,12.23
2022-10-06T08:15:13.276Z,12.31
2022-10-06T08:17:42.877Z,12.36
2022-10-06T08:20:16.660Z,12.44
2022-10-06T08:22:45.762Z,12.63
2022-10-06T08:25:15.302Z,12.73
2022-10-06T08:27:53.433Z,12.90
2022-10-06T08:30:26.746Z,13.16
2022-10-06T08:32:58.136Z,13.26
2022-10-06T08:35:30.221Z,13.31
2022-10-06T08:38:04.403Z,13.14
2022-10-06T08:40:34.830Z,12.92
2022-10-06T08:43:17.998Z,12.90
2022-10-06T08:45:49.936Z,12.51
2022-10-06T08:48:29.785Z,12.34
2022-10-06T08:51:18.295Z,12.26
2022-10-06T08:53:59.036Z,12.19
2022-10-06T08:56:33.426Z,12.29
2022-10-06T08:59:05.378Z,12.44
2022-10-06T09:01:43.032Z,12.45
2022-10-06T09:04:19.114Z,12.30
2022-10-06T09:06:59.915Z,12.26
2022-10-06T09:09:54.338Z,12.28
2022-10-06T09:12:37.971Z,12.17
2022-10-06T09:15:25.366Z,12.04
2022-10-06T09:18:01.521Z,11.85
2022-10-06T09:20:39.790Z,11.64
2022-10-06T09:23:17.351Z,11.52
2022-10-06T09:25:47.098Z,11.53
2022-10-06T09:28:18.408Z,11.36
2022-10-06T09:30:50.111Z,11.12
2022-10-06T09:33:40.435Z,11.03
2022-10-06T09:38:57.203Z,11.08
2022-10-06T09:41:36.195Z,11.07
2022-10-06T09:44:08.881Z,11.10
2022-10-06T09:46:43.690Z,11.23
2022-10-06T09:49:20.804Z,11.18
2022-10-06T09:52:10.499Z,11.24
2022-10-06T09:54:43.005Z,11.36
2022-10-06T09:57:18.146Z,11.46
2022-10-06T09:59:48.810Z,11.47
2022-10-06T10:02:29.009Z,11.41
2022-10-06T10:04:59.231Z,11.49
2022-10-06T10:07:30.825Z,11.50
2022-10-06T10:10:25.973Z,11.47
2022-10-06T10:12:56.748Z,11.40
2022-10-06T10:15:28.985Z,11.39
2022-10-06T10:17:59.912Z,11.47
2022-10-06T10:20:38.960Z,11.66
2022-10-06T10:26:19.257Z,12.40
2022-10-06T10:29:15.227Z,12.61
2022-10-06T10:31:52.277Z,12.80
2022-10-06T10:34:52.775Z,13.12
2022-10-06T10:37:29.921Z,13.09
2022-10-06T10:40:03.976Z,12.98
2022-10-06T10:42:40.556Z,12.96
2022-10-06T10:45:24.193Z,12.91
2022-10-06T10:47:53.363Z,12.88
2022-10-06T10:50:32.538Z,13.01
2022-10-06T10:53:15.249Z,13.33
2022-10-06T10:55:48.726Z,13.47
2022-10-06T10:58:25.569Z,13.46
2022-10-06T11:01:12.289Z,13.39
2022-10-06T11:03:56.195Z,13.51
2022-10-06T11:06:51.240Z,13.52
2022-10-06T11:09:24.798Z,13.42
2022-10-06T11:12:18.504Z,13.39
2022-10-06T11:14:59.007Z,13.26
2022-10-06T11:17:43.847Z,13.19
2022-10-06T11:20:38.973Z,13.22
2022-10-06T11:23:43.396Z,13.22
2022-10-06T11:26:24.606Z,13.26
2022-10-06T11:29:02.835Z,13.32
2022-10-06T11:31:40.193Z,13.24
2022-10-06T11:34:14.760Z,13.06
2022-10-06T11:36:57.710Z,12.85
2022-10-06T11:39:34.699Z,12.74
2022-10-06T11:42:15.329Z,12.70
2022-10-06T11:45:02.950Z,12.74
2022-10-06T11:47:46.805Z,12.72
2022-10-06T11:50:35.427Z,12.70
2022-10-06T11:53:28.112Z,12.65
2022-10-06T11:56:28.442Z,12.51
2022-10-06T11:59:16.593Z,12.36
2022-10-06T12:01:55.951Z,12.31
2022-10-06T12:04:28.345Z,12.30
2022-10-06T12:07:07.269Z,12.43
2022-10-06T12:09:52.954Z,12.56
2022-10-06T12:13:06.333Z,12.73
2022-10-06T12:18:50.177Z,12.76
2022-10-06T12:21:46.326Z,12.85
2022-10-06T12:24:43.021Z,12.80
2022-10-06T12:27:25.767Z,12.90
2022-10-06T12:30:04.015Z,12.96
2022-10-06T12:32:45.961Z,12.87
2022-10-06T12:35:25.838Z,12.85
2022-10-06T12:38:00.018Z,12.86
2022-10-06T12:40:57.458Z,12.98
2022-10-06T12:44:00.280Z,13.07
2022-10-06T12:46:39.348Z,13.38
2022-10-06T12:56:33.896Z,12.87
2022-10-06T12:59:24.982Z,12.75
2022-10-06T13:01:58.013Z,12.36
2022-10-06T13:04:40.404Z,12.83
2022-10-06T13:07:19.554Z,12.22
2022-10-06T13:09:51.323Z,12.72
2022-10-06T13:12:31.229Z,13.02
2022-10-06T13:15:21.866Z,12.54
2022-10-06T13:18:05.774Z,12.94
2022-10-06T13:20:42.547Z,12.89
2022-10-06T13:26:08.129Z,12.00
2022-10-06T13:28:51.237Z,11.78
2022-10-06T13:31:24.356Z,12.62
2022-10-06T13:33:57.291Z,12.46
2022-10-06T13:36:30.676Z,11.59
2022-10-06T13:39:00.337Z,12.12
2022-10-06T13:41:33.060Z,11.51
2022-10-06T13:44:20.733Z,11.46
2022-10-06T13:46:55.567Z,11.35
2022-10-06T13:49:35.120Z,11.36
2022-10-06T13:52:11.451Z,11.68
2022-10-06T13:54:48.435Z,11.60
2022-10-06T13:57:36.688Z,11.65
2022-10-06T14:00:24.247Z,11.20
2022-10-06T14:02:56.835Z,11.40
2022-10-06T14:05:36.200Z,11.38
2022-10-06T14:08:19.798Z,11.39
2022-10-06T14:10:58.345Z,11.91
2022-10-06T14:13:30.757Z,11.91
2022-10-06T14:16:03.996Z,11.81
2022-10-06T14:18:39.462Z,11.82
2022-10-06T14:21:20.625Z,11.82
2022-10-06T14:23:52.414Z,11.81
2022-10-06T14:26:21.901Z,11.92
2022-10-06T14:28:53.553Z,11.78
2022-10-06T14:31:32.933Z,11.75
2022-10-06T14:34:02.954Z,11.72
2022-10-06T14:36:34.641Z,11.62
2022-10-06T14:39:13.394Z,11.73
2022-10-06T14:44:17.666Z,11.67
2022-10-06T14:46:50.328Z,11.70
2022-10-06T14:51:59.646Z,11.73
2022-10-06T14:54:29.248Z,11.71
2022-10-06T14:56:58.451Z,11.69
2022-10-06T15:02:11.541Z,11.71
2022-10-06T15:04:40.660Z,11.71
2022-10-06T15:10:03.193Z,11.74
2022-10-06T15:12:37.407Z,11.74
2022-10-06T15:15:12.425Z,11.70
2022-10-06T15:17:43.792Z,11.72
2022-10-06T15:20:13.976Z,11.70
2022-10-06T15:22:43.318Z,11.70
2022-10-06T15:25:33.925Z,11.44
2022-10-06T15:28:18.645Z,11.67
2022-10-06T15:30:56.539Z,11.66
2022-10-06T15:33:31.654Z,11.65
2022-10-06T15:36:17.805Z,11.71
2022-10-06T15:41:27.233Z,11.68
2022-10-06T15:43:56.947Z,11.67
2022-10-06T15:46:34.755Z,11.68
2022-10-06T15:49:07.256Z,11.68
2022-10-06T15:51:46.890Z,11.64
2022-10-06T15:54:18.920Z,11.64
2022-10-06T15:56:48.913Z,11.65
2022-10-06T15:59:20.919Z,11.60
2022-10-06T16:01:57.298Z,11.66
2022-10-06T16:04:35.161Z,11.58
2022-10-06T16:07:10.264Z,11.62
2022-10-06T16:09:43.407Z,11.61
2022-10-06T16:12:15.923Z,11.62
2022-10-06T16:14:50.825Z,11.64
2022-10-06T16:17:25.423Z,11.65
2022-10-06T16:19:56.565Z,11.65
2022-10-06T16:22:25.933Z,11.64
2022-10-06T16:24:55.015Z,11.62
2022-10-06T16:27:24.271Z,11.59
2022-10-06T16:29:53.524Z,11.58
2022-10-06T16:32:22.815Z,11.60
2022-10-06T16:34:59.109Z,11.61
2022-10-06T16:37:28.404Z,11.62
2022-10-06T16:39:57.501Z,11.62
2022-10-06T16:42:44.827Z,11.65
2022-10-06T16:45:14.683Z,11.64
2022-10-06T16:47:43.755Z,11.62
2022-10-06T16:50:15.582Z,11.58
2022-10-06T16:52:44.304Z,11.73
2022-10-06T16:55:13.434Z,11.66
2022-10-06T16:57:47.655Z,11.56
2022-10-06T17:00:17.167Z,11.62
2022-10-06T17:02:46.280Z,11.62
2022-10-06T17:05:17.457Z,11.62
2022-10-06T17:07:46.622Z,11.63
2022-10-06T17:10:21.459Z,11.64
2022-10-06T17:12:51.202Z,11.59
2022-10-06T17:15:20.447Z,11.57
2022-10-06T17:17:49.644Z,11.56
2022-10-06T17:20:25.832Z,11.59
2022-10-06T17:22:55.165Z,11.56
2022-10-06T17:25:24.155Z,11.57
2022-10-06T17:27:53.546Z,11.53
2022-10-06T17:30:22.960Z,11.57
2022-10-06T17:32:54.684Z,11.56
2022-10-06T17:35:25.858Z,11.56
2022-10-06T17:37:56.176Z,11.54
2022-10-06T17:40:25.607Z,11.50
2022-10-06T17:42:55.547Z,11.52
2022-10-06T17:45:25.347Z,11.53
2022-10-06T17:48:05.962Z,11.57
2022-10-06T17:50:37.218Z,11.54
2022-10-06T17:53:12.491Z,11.52
2022-10-06T17:55:48.940Z,11.51
2022-10-06T17:58:18.893Z,11.49
2022-10-06T18:00:48.066Z,11.49
2022-10-06T18:03:26.936Z,11.52
2022-10-06T18:06:00.182Z,11.52
2022-10-06T18:08:30.989Z,11.47
2022-10-06T18:11:13.175Z,11.49
2022-10-06T18:13:42.673Z,11.48
2022-10-06T18:16:22.939Z,11.50
2022-10-06T18:18:54.525Z,11.49
2022-10-06T18:21:27.845Z,11.50
2022-10-06T18:23:57.608Z,11.51
2022-10-06T18:26:26.712Z,11.49
2022-10-06T18:28:55.862Z,11.52
2022-10-06T18:31:25.332Z,11.53
2022-10-06T18:36:46.691Z,11.56
2022-10-06T18:39:16.102Z,11.52
2022-10-06T18:41:45.879Z,11.44
2022-10-06T18:44:40.671Z,11.39
2022-10-06T18:47:27.732Z,11.41
2022-10-06T18:50:02.915Z,11.34
2022-10-06T18:52:34.842Z,11.29
2022-10-06T18:55:08.995Z,11.22
2022-10-06T18:57:48.534Z,11.11
2022-10-06T19:00:20.956Z,10.99
2022-10-06T19:02:51.724Z,10.78
2022-10-06T19:05:20.898Z,10.84
2022-10-06T19:07:55.718Z,10.75
2022-10-06T19:10:25.285Z,10.93
2022-10-06T19:12:54.522Z,10.95
2022-10-06T19:15:23.602Z,11.01
2022-10-06T19:17:57.735Z,11.08
2022-10-06T19:20:27.029Z,11.10
2022-10-06T19:22:58.143Z,11.05
2022-10-06T19:25:30.156Z,11.16
2022-10-06T19:27:59.470Z,11.19
2022-10-06T19:30:28.915Z,11.14
2022-10-06T19:32:58.479Z,11.12
2022-10-06T19:35:27.769Z,11.09
2022-10-06T19:37:58.910Z,11.07
2022-10-06T19:43:00.565Z,11.11
2022-10-06T19:45:29.848Z,11.06
2022-10-06T19:47:59.816Z,11.18
2022-10-06T19:50:29.838Z,11.16
2022-10-06T19:53:01.069Z,11.23
2022-10-06T19:55:30.947Z,11.25
2022-10-06T19:58:00.175Z,11.25
2022-10-06T20:00:30.145Z,11.18
2022-10-06T20:03:00.627Z,11.19
2022-10-06T20:08:21.911Z,11.19
2022-10-06T20:10:51.007Z,11.15
2022-10-06T20:13:20.123Z,11.17
2022-10-06T20:15:49.325Z,11.15
2022-10-06T20:18:18.508Z,11.20
2022-10-06T20:21:03.240Z,11.24
2022-10-06T20:23:34.527Z,11.23
2022-10-06T20:26:20.716Z,11.28
2022-10-06T20:28:50.710Z,11.21
2022-10-06T20:31:29.050Z,11.29
2022-10-06T20:34:00.117Z,11.31
2022-10-06T20:36:36.695Z,11.33
2022-10-06T20:39:21.861Z,11.25
2022-10-06T20:41:51.602Z,11.27
2022-10-06T20:44:21.702Z,11.28
2022-10-06T20:46:56.313Z,11.29
2022-10-06T20:49:25.618Z,11.30
2022-10-06T20:51:54.737Z,11.32
2022-10-06T20:54:34.273Z,11.34
2022-10-06T20:57:09.036Z,11.40
2022-10-06T20:59:43.637Z,11.37
2022-10-06T21:02:12.934Z,11.29
2022-10-06T21:04:43.127Z,11.36
2022-10-06T21:07:12.414Z,11.29
2022-10-06T21:09:48.650Z,11.34
2022-10-06T21:12:25.520Z,11.36
2022-10-06T21:14:56.437Z,11.37
2022-10-06T21:17:25.483Z,11.33
2022-10-06T21:22:32.032Z,11.36
2022-10-06T21:25:03.118Z,11.35
2022-10-06T21:27:32.360Z,11.40
2022-10-06T21:30:13.158Z,11.39
2022-10-06T21:32:42.556Z,11.41
2022-10-06T21:35:12.098Z,11.40
2022-10-06T21:37:42.500Z,11.40
2022-10-06T21:42:49.542Z,11.43
2022-10-06T21:45:21.020Z,11.46
2022-10-06T21:47:58.490Z,11.50
2022-10-06T21:50:27.479Z,11.47
2022-10-06T21:52:56.556Z,11.49
2022-10-06T21:55:32.844Z,11.44
2022-10-06T21:58:07.395Z,11.44
2022-10-06T22:00:41.661Z,11.38
2022-10-06T22:03:11.084Z,11.30
2022-10-06T22:05:40.111Z,11.31
2022-10-06T22:08:09.277Z,11.26
2022-10-06T22:10:40.329Z,11.25
2022-10-06T22:13:09.420Z,11.22
2022-10-06T22:15:38.703Z,11.22
2022-10-06T22:18:07.795Z,11.21
2022-10-06T22:20:36.868Z,11.02
2022-10-06T22:23:05.991Z,11.18
2022-10-06T22:25:35.071Z,11.20
2022-10-06T22:28:06.238Z,11.21
2022-10-06T22:30:35.358Z,11.23
2022-10-06T22:33:04.467Z,11.24
2022-10-06T22:35:38.694Z,11.23
2022-10-06T22:38:08.015Z,11.22
2022-10-06T22:40:36.993Z,11.24
2022-10-06T22:43:13.314Z,11.28
2022-10-06T22:45:42.529Z,11.30
2022-10-06T22:48:11.579Z,11.31
2022-10-06T22:50:45.696Z,11.34
2022-10-06T22:53:16.439Z,11.35
2022-10-06T22:55:46.006Z,11.38
2022-10-06T22:58:22.054Z,11.37
2022-10-06T23:00:51.574Z,11.41
2022-10-06T23:03:21.194Z,11.42
2022-10-06T23:05:58.050Z,11.43
2022-10-06T23:08:34.867Z,11.43
2022-10-06T23:11:08.847Z,11.46
2022-10-06T23:13:40.608Z,11.46
2022-10-06T23:16:17.519Z,11.49
2022-10-06T23:18:52.817Z,11.52
2022-10-06T23:21:24.217Z,11.50
2022-10-06T23:23:56.194Z,11.43
2022-10-06T23:26:35.734Z,11.50
2022-10-06T23:29:11.796Z,11.55
2022-10-06T23:31:40.943Z,11.54
2022-10-06T23:34:10.153Z,11.57
2022-10-06T23:36:39.401Z,11.59
2022-10-06T23:39:08.899Z,11.61
2022-10-06T23:41:38.166Z,11.60
2022-10-06T23:44:15.323Z,11.53
2022-10-06T23:46:44.838Z,11.61
2022-10-06T23:49:14.214Z,11.60
2022-10-06T23:51:48.384Z,11.63
2022-10-06T23:54:17.499Z,11.65
2022-10-06T23:59:30.826Z,11.65
